Orlando Sanford International Airport
KSFB : now visible

Airfield :











YOU CAN JOIN US ON...

 
LOGIN :

Register | Disclaimer

   EN    FR    IT 

 









Legend :    VFR   Marginal VFR   IFR   Intensive IFR   Very Intensive IFR
Visi :
Ceiling :
>= 8 km
>= 3000ft
5 to 8 km
1000 to 3000 ft
1500m to 5 km
500 to 1000 ft
800 to 1500m
200 to 500 ft
< 800m
< 200 ft
Symbols :   Thunderstorms  Fog  Heavy snow  Heavy precipitations  Wind > 20 kt






- Airport Elevation : 55 ft
- IATA code : SFB


KSFB - Orlando Sanford International

CURRENT METAR :
  • 301353Z 35010KT 10SM CLR 21/14 A3005 RMK AO2 SLP174 T02060139

EXPIRED METARs :
  • 301253Z 35012KT 10SM OVC085 19/13 A3004 RMK AO2 SLP170 T01890128
  • 301153Z 35008KT 10SM OVC085 18/14 A3002 RMK AO2 SLP164 70055 T01830139 10194 20178 51023

TAF KSFB
Valid from the 30 at 12:00 until the 01 at 12:00 UTC


301131Z 3012/0112 35011KT P6SM OVC045
FM301500 02007KT P6SM SCT120
FM302000 04006KT P6SM SCT035 BKN200
FM010500 01005KT P6SM SCT040 SCT250
KZJX FIR / North America



MET'MAP, your aeronautical weather chart ! - Copyright ORBIFLY December 2007 - Disclaimer

ORBIFLY MET'MAP TEAM :

Programming & Development : Alexandra Zaïnal
Concept & original design : Baudouin d'Aumeries
Assistance for programming : Marc-Olivier Méhu
Technical & hardware support : Manuel Goepfert

Contact : metmap@orbifly.com




SOURCES & CREDITS :

   NOAA       Earth
Advisory